Historyczne dane pomiarowe

Dodano dane terminowe – wersja testowa.

Dane z okresu 1951-2019

Wersja bazy: 1.34 [2019-03-16, lista zmian], aktualizacja planowana na 2019-04-15

Dane meteo z obszaru Polski uzyskane na podstawie danych udostępnionych przez Instytut Meteorologii i Gospodarki Wodnej – Państwowy Instytut Badawczy.

 

Wybierz Datę:    

       

TemperaturaWilgotnośćWiatrCiśnienieOpadyŚniegCzas trwania zjawisk
 Stacja t tx tn tng RH VA  wxwx mslp ppp RRR   cm mm wxwxwxwxwxwxwx
1983-08-14 14.1 18.8 9.6 7.7 66.0- 2.7 2.3---- 0.0------------
1983-08-13 14.3 17.3 11.8 10.8 80.5- 5.3 4.7---- 5.8------------
1983-08-12 16.9 22.3 10.7 10.3 76.5- 3.3 3.7---- 6.4------------
1983-08-11 19.8 25.3 12.0 10.1 72.3- 0.0 2.7---- 0.0------------
1983-08-10 19.3 26.2 12.6 9.3 73.8- 0.0 2.7---- 0.0------------
1983-08-09 19.8 25.4 12.9 9.8 74.3- 0.0 4.0---- 0.0------------
1983-08-08 18.9 23.4 16.2 14.5 82.5- 2.7 2.7---- 0.0------------
1983-08-07 18.2 21.8 14.5 11.6 86.8- 6.7 4.3---- 0.0------------
1983-08-06 16.9 21.7 9.3 7.2 76.5- 0.3 1.3---- 0.0------------
1983-08-05 15.3 17.3 13.1 12.7 81.3- 5.7 2.7---- 0.2------------
1983-08-04 17.1 18.4 15.2 14.6 89.3- 7.7 4.3---- 6.6------------
1983-08-03 16.9 19.2 13.7 13.4 92.5- 8.0 5.3---- 20.2------------
1983-08-02 19.8 25.2 16.7 13.9 68.8- 2.7 3.7---- 22.4------------
1983-08-01 20.8 30.3 9.9 5.6 57.8- 0.0 5.0---- 0.0------------
1983-07-31 17.0 24.0 8.9 6.1 79.3- 0.7 3.0---- 0.0------------
1983-07-30 17.7 20.2 15.4 14.0 70.0- 6.0 4.7---- 0.0------------
1983-07-29 18.3 24.8 11.9 9.4 70.0- 4.7 2.7---- 0.1------------
1983-07-28 20.1 24.3 13.9 11.1 75.8- 2.7 2.7---- 0.1------------
1983-07-27 19.0 29.1 8.8 6.8 65.3- 2.7 0.7---- 0.0------------
1983-07-26 19.4 24.6 13.0 11.1 91.3- 0.0 3.7---- 0.0------------
1983-07-25 16.9 21.3 9.4 7.1 86.3- 1.0 4.3---- 0.0------------
1983-07-24 17.7 21.6 14.3 10.4 83.5- 3.7 3.3---- 0.0------------
1983-07-23 17.2 20.3 14.0 11.2 73.0- 7.3 6.0---- 0.4------------
1983-07-22 16.0 20.6 10.3 16.5 64.5- 4.7 3.0---- 0.0------------
1983-07-21 14.6 19.8 9.1 7.4 62.8- 4.3 2.7---- 0.0------------
1983-07-20 13.4 18.4 9.4 7.3 72.5- 6.0 2.7---- 0.5------------
1983-07-19 18.8 23.1 15.5 13.7 79.3- 6.7 3.3---- 0.2------------
1983-07-18 20.2 31.3 10.6 9.5 68.8- 2.7 6.3---- 10.9------------
1983-07-17 16.5 22.7 8.3 6.4 77.8- 1.3 3.0---- 0.0------------
1983-07-16 19.4 24.2 13.1 10.9 73.5- 5.3 4.0---- 0.0------------
1983-07-15 17.6 26.6 8.0 5.9 67.5- 2.3 1.0---- 0.0------------
1983-07-14 18.8 21.1 17.6 15.7 68.8- 3.3 6.0---- 0.0------------
1983-07-13 19.8 26.0 13.6 13.0 84.3- 3.3 2.7---- 0.0------------
1983-07-12 21.2 25.5 16.2 13.5 77.0- 3.0 2.7---- 0.0------------
1983-07-11 21.0 25.9 15.8 13.0 75.5- 1.7 3.0---- 0.0------------
1983-07-10 21.3 27.2 12.2 9.3 69.8- 0.0 3.3---- 0.0------------
1983-07-09 19.0 25.3 8.9 8.3 68.3- 0.0 1.7---- 0.0------------
1983-07-08 18.2 23.3 10.9 5.4 68.8- 1.0 4.0---- 0.0------------
1983-07-07 17.5 22.2 9.4 6.3 67.8- 0.0 5.0---- 0.0------------
1983-07-06 17.8 24.7 8.4 6.7 72.5- 0.3 2.7---- 0.0------------
1983-07-05 16.3 24.6 7.8 6.0 73.8- 0.0 2.0---- 0.0------------
1983-07-04 16.3 22.4 9.8 5.8 75.3- 1.3 2.0---- 0.0------------
1983-07-03 16.2 23.7 8.2 5.4 77.5- 5.3 3.0---- 0.0------------
1983-07-02 15.8 20.5 12.3 9.8 87.8- 2.0 3.0---- 0.0------------
1983-07-01 19.0 27.2 13.0 11.2 78.3- 3.3 3.7---- 1.3------------
1983-06-30 18.9 25.0 10.7 8.4 60.0- 3.0 4.7---- 0.0------------
1983-06-29 13.8 20.0 7.2 5.3 75.8- 3.3 4.3---- 0.0------------
1983-06-28 14.4 18.2 12.2 12.0 77.8- 4.3 3.0---- 2.1------------
1983-06-27 15.7 24.0 9.2 5.0 84.8- 7.7 3.0---- 3.5------------
1983-06-26 15.3 23.0 6.9 5.0 80.5- 3.3 3.3---- 0.0------------
1983-06-25 15.8 24.5 7.8 5.3 80.0- 4.0 1.0---- 1.0------------
1983-06-24 16.4 24.8 5.3 2.4 60.0- 0.0 2.3---- 0.0------------
1983-06-23 13.6 20.5 4.2 0.0 67.5- 0.0 3.7---- 0.0------------
1983-06-22 12.3 16.6 5.5 0.5 62.5- 0.0 3.7---- 0.0------------
1983-06-21 13.8 20.5 7.3 4.0 77.0- 2.7 6.7---- 0.0------------
1983-06-20 16.2 21.7 9.7 7.3 73.0- 0.7 4.3---- 0.0------------
1983-06-19 15.5 19.2 12.5 12.3 70.8- 0.3 5.3---- 0.0------------
1983-06-18 13.6 15.7 11.7 11.2 80.5- 7.3 4.7---- 0.0------------
1983-06-17 13.1 19.3 5.9 4.5 81.0- 1.3 3.3---- 0.0------------
1983-06-16 14.0 16.2 12.0 11.4 67.8- 6.3 5.0---- 0.0------------
291.0 ms

 

Źródłem pochodzenia danych jest Instytut Meteorologii i Gospodarki Wodnej – Państwowy Instytut Badawczy. Dane Instytutu Meteorologii i Gospodarki Wodnej – Państwowego Instytutu Badawczego zostały przetworzone.

Dane źródłowe można odnaleźć na stronie https://dane.imgw.pl